Time;durP1;ratioP1;P1;durP2;ratioP2;P2;SDS_P1;SDS_P2;PMS_P1;PMS_P2;Temp;Humidity;BMP_temperature;BMP_pressure;BME280_temperature;BME280_humidity;BME280_pressure;Samples;Min_cycle;Max_cycle;Signal;HPM_P1;HPM_P2
2022/02/08 00:00:08;;;;;;;11.30;6.13;;;;;;;2.79;60.41;94347.03;4942875;28;20039;-77
2022/02/08 00:02:36;;;;;;;5.38;4.88;;;;;;;2.77;60.01;94354.13;4940088;29;20791;-77
2022/02/08 00:05:04;;;;;;;7.75;5.63;;;;;;;2.77;60.34;94359.28;4942002;29;20036;-77
2022/02/08 00:07:31;;;;;;;6.97;4.57;;;;;;;2.79;59.75;94352.16;4943140;29;20042;-77
2022/02/08 00:09:56;;;;;;;7.20;4.60;;;;;;;2.79;59.64;94347.03;4941181;29;20504;-77
2022/02/08 00:12:22;;;;;;;18.63;6.50;;;;;;;2.75;60.13;94345.81;4941172;29;20035;-76
2022/02/08 00:14:48;;;;;;;9.55;4.85;;;;;;;2.76;59.51;94337.13;4942783;29;20039;-77
2022/02/08 00:17:14;;;;;;;7.57;4.45;;;;;;;2.71;59.83;94339.50;4941922;29;20035;-77
2022/02/08 00:19:39;;;;;;;7.18;3.90;;;;;;;2.73;59.79;94342.66;4925362;29;20072;-77
2022/02/08 00:22:05;;;;;;;7.88;4.60;;;;;;;2.68;59.77;94329.63;4941466;29;20031;-76
2022/02/08 00:24:30;;;;;;;7.13;5.70;;;;;;;2.63;59.96;94342.25;4941179;29;20503;-77
2022/02/08 00:26:55;;;;;;;7.88;5.18;;;;;;;2.61;59.79;94339.88;4925618;29;20043;-77
2022/02/08 00:29:21;;;;;;;6.32;5.05;;;;;;;2.62;60.29;94356.88;4940964;29;20071;-77
2022/02/08 00:31:47;;;;;;;5.68;4.78;;;;;;;2.67;59.45;94328.81;4924746;29;20436;-77
2022/02/08 00:34:13;;;;;;;6.07;4.80;;;;;;;2.66;59.73;94347.78;4924606;29;20492;-77
2022/02/08 00:36:38;;;;;;;7.10;4.80;;;;;;;2.64;60.14;94354.09;4925330;29;20042;-76
2022/02/08 00:39:07;;;;;;;5.45;4.43;;;;;;;2.66;59.10;94339.28;4940660;29;20092;-75
2022/02/08 00:41:33;;;;;;;6.75;4.72;;;;;;;2.61;59.60;94344.22;4942261;29;20093;-77
2022/02/08 00:44:05;;;;;;;9.27;4.80;;;;;;;2.59;59.83;94346.16;4924921;29;20098;-77
2022/02/08 00:48:59;;;;;;;5.03;4.63;;;;;;;2.54;59.79;94356.22;4940233;29;20043;-77
2022/02/08 00:51:27;;;;;;;6.20;4.32;;;;;;;2.48;59.80;94349.31;4954599;28;20040;-77
2022/02/08 00:53:53;;;;;;;7.13;4.68;;;;;;;2.39;59.83;94357.19;4942035;29;20118;-77
2022/02/08 00:56:19;;;;;;;9.50;5.03;;;;;;;2.40;59.41;94373.34;4940961;29;20061;-77
2022/02/08 00:58:44;;;;;;;5.40;3.97;;;;;;;2.46;59.50;94369.25;4909316;29;20039;-76
2022/02/08 01:01:10;;;;;;;11.77;4.35;;;;;;;2.36;59.29;94367.81;4924966;29;20036;-76
2022/02/08 01:03:35;;;;;;;7.00;4.25;;;;;;;2.38;60.02;94370.19;4923471;29;20048;-76
2022/02/08 01:06:05;;;;;;;5.05;4.05;;;;;;;2.39;59.61;94375.13;4924641;29;20098;-76
2022/02/08 01:08:33;;;;;;;4.60;3.92;;;;;;;2.42;59.66;94364.47;4941526;29;20044;-76
2022/02/08 01:10:59;;;;;;;7.90;4.25;;;;;;;2.41;59.40;94369.81;4941431;29;20110;-76
2022/02/08 01:13:25;;;;;;;5.05;4.00;;;;;;;2.45;59.10;94375.38;4924913;29;20035;-76
2022/02/08 01:15:50;;;;;;;7.00;4.40;;;;;;;2.40;59.21;94374.16;4940575;29;20043;-76
2022/02/08 01:18:16;;;;;;;4.38;3.97;;;;;;;2.42;58.98;94374.75;4940338;29;20110;-76
2022/02/08 01:20:42;;;;;;;5.20;4.22;;;;;;;2.45;58.40;94377.94;4924272;29;20524;-77
2022/02/08 01:23:08;;;;;;;6.57;4.10;;;;;;;2.42;58.18;94374.75;4924853;29;20122;-77
2022/02/08 01:25:48;;;;;;;4.90;4.45;;;;;;;2.44;59.01;94376.31;4956249;28;20035;-77
2022/02/08 01:33:37;;;;;;;6.28;4.10;;;;;;;2.41;58.46;94370.59;4924754;29;20448;-76
2022/02/08 01:39:01;;;;;;;6.10;5.18;;;;;;;2.24;58.92;94373.69;4940627;29;20151;-76
2022/02/08 01:41:46;;;;;;;6.20;4.38;;;;;;;2.23;58.74;94370.34;4926988;29;20571;-77
2022/02/08 01:46:57;;;;;;;6.35;4.50;;;;;;;2.12;59.12;94380.38;4924151;29;20063;-77
2022/02/08 01:51:49;;;;;;;4.82;4.43;;;;;;;2.10;59.08;94395.91;4924727;29;20522;-77
2022/02/08 01:54:14;;;;;;;7.07;5.63;;;;;;;2.10;59.09;94383.88;4939934;29;20039;-76
2022/02/08 01:56:40;;;;;;;8.20;5.00;;;;;;;2.11;59.30;94389.81;4939878;29;20035;-76
2022/02/08 01:59:05;;;;;;;5.68;5.13;;;;;;;2.12;59.35;94388.06;4939602;29;20039;-77
2022/02/08 02:01:31;;;;;;;5.38;4.93;;;;;;;2.13;59.74;94400.69;4921876;29;20046;-77
2022/02/08 02:03:56;;;;;;;8.07;4.88;;;;;;;2.16;59.31;94413.13;4941231;28;20110;-77
2022/02/08 02:06:22;;;;;;;6.13;4.28;;;;;;;2.19;59.50;94407.63;4941385;29;20479;-77
2022/02/08 02:08:48;;;;;;;5.20;4.80;;;;;;;2.28;58.75;94411.63;4941297;23;20166;-77
2022/02/08 02:11:13;;;;;;;5.80;5.10;;;;;;;2.26;59.03;94398.16;4941469;28;20415;-76
2022/02/08 02:13:47;;;;;;;5.47;4.72;;;;;;;2.22;58.83;94412.34;4941208;28;20395;-76
2022/02/08 02:16:18;;;;;;;7.70;6.78;;;;;;;2.14;59.80;94417.66;4926366;29;20081;-76
2022/02/08 02:18:44;;;;;;;11.20;5.05;;;;;;;2.16;59.25;94410.56;4940350;28;20050;-77
2022/02/08 02:21:09;;;;;;;9.50;5.22;;;;;;;2.08;59.53;94419.19;4927449;29;20043;-77
2022/02/08 02:23:35;;;;;;;5.90;5.10;;;;;;;2.09;59.44;94417.41;4927542;29;20040;-77
2022/02/08 02:26:00;;;;;;;7.78;5.55;;;;;;;2.03;59.71;94423.31;4951226;29;20032;-77
2022/02/08 02:28:26;;;;;;;11.32;5.65;;;;;;;2.05;60.02;94427.25;4943381;29;20416;-77
2022/02/08 02:30:52;;;;;;;7.15;4.95;;;;;;;1.94;60.01;94432.13;4927223;29;20028;-77
2022/02/08 02:33:17;;;;;;;5.68;4.95;;;;;;;1.99;59.82;94437.50;4927012;29;20645;-77
2022/02/08 02:35:44;;;;;;;6.70;4.80;;;;;;;1.99;59.82;94447.75;4927902;29;20061;-76
2022/02/08 02:38:10;;;;;;;8.70;4.90;;;;;;;1.96;59.94;94448.94;4943244;29;20116;-76
2022/02/08 02:40:36;;;;;;;9.85;5.43;;;;;;;1.91;60.12;94455.56;4942461;29;20118;-76
2022/02/08 02:43:02;;;;;;;5.47;4.97;;;;;;;1.92;59.83;94467.41;4942939;29;20062;-77
2022/02/08 02:45:28;;;;;;;6.65;5.50;;;;;;;1.88;60.25;94453.38;4912691;29;20495;-77
2022/02/08 02:47:54;;;;;;;6.07;5.22;;;;;;;1.93;60.37;94463.88;4942785;29;20044;-77
2022/02/08 02:50:20;;;;;;;5.18;4.75;;;;;;;2.01;59.63;94467.09;4927054;29;20023;-77
2022/02/08 02:52:45;;;;;;;6.72;4.75;;;;;;;2.03;59.43;94479.72;4943200;29;20043;-77
2022/02/08 02:55:14;;;;;;;5.10;4.70;;;;;;;1.94;59.41;94480.84;4927653;29;20035;-76
2022/02/08 02:57:41;;;;;;;5.43;4.93;;;;;;;1.91;60.07;94470.94;4942383;29;20032;-76
2022/02/08 03:00:14;;;;;;;4.90;4.50;;;;;;;1.96;59.25;94481.47;4927010;29;20106;-76
2022/02/08 03:05:48;;;;;;;4.82;4.35;;;;;;;1.91;59.82;94486.34;4944066;28;19929;-76
2022/02/08 03:17:34;;;;;;;4.68;4.28;;;;;;;1.99;59.41;94473.41;4942262;29;20079;-76
2022/02/08 03:19:21;;;;;;;4.80;4.40;;;;;;;1.97;59.23;94475.34;4943122;29;20412;-76
2022/02/08 03:21:46;;;;;;;5.22;4.72;;;;;;;2.04;58.59;94476.19;4933479;29;20471;-76
2022/02/08 03:24:12;;;;;;;6.95;5.05;;;;;;;2.01;58.46;94467.09;4942524;29;20038;-76
2022/02/08 03:26:37;;;;;;;5.47;4.88;;;;;;;2.04;59.13;94486.44;4950334;28;20047;-76
2022/02/08 03:29:03;;;;;;;4.60;4.05;;;;;;;2.07;58.22;94486.06;4942308;29;20027;-77
2022/02/08 03:31:28;;;;;;;4.82;4.28;;;;;;;2.04;58.45;94496.69;4926050;29;20551;-77
2022/02/08 03:33:54;;;;;;;4.60;4.20;;;;;;;2.11;57.78;94512.91;4926966;29;20038;-77
2022/02/08 03:36:19;;;;;;;8.85;4.43;;;;;;;2.09;58.08;94520.00;4942936;29;20032;-77
2022/02/08 03:38:48;;;;;;;4.20;3.88;;;;;;;2.22;58.07;94503.91;4942182;29;20035;-77
2022/02/08 03:41:13;;;;;;;5.00;4.50;;;;;;;2.15;57.67;94516.72;4941967;29;20280;-77
2022/02/08 03:43:44;;;;;;;4.72;4.35;;;;;;;2.20;57.78;94516.13;4942506;28;20078;-77
2022/02/08 03:46:14;;;;;;;10.80;5.20;;;;;;;2.20;57.49;94522.06;4942133;29;20166;-77
2022/02/08 03:48:42;;;;;;;8.25;4.47;;;;;;;2.20;57.29;94511.00;4934300;29;20042;-77
2022/02/08 03:51:13;;;;;;;4.47;4.13;;;;;;;2.27;57.41;94507.50;4957033;28;20034;-76
2022/02/08 03:53:43;;;;;;;4.70;4.13;;;;;;;2.25;57.53;94503.53;4910674;29;20035;-76
2022/02/08 03:56:08;;;;;;;4.95;4.55;;;;;;;2.22;57.13;94519.31;4941880;29;20037;-76
2022/02/08 03:58:34;;;;;;;4.25;3.95;;;;;;;2.21;57.29;94520.28;4941970;29;20031;-76
2022/02/08 04:03:29;;;;;;;4.05;3.70;;;;;;;2.20;57.25;94522.06;4942080;29;20052;-77
2022/02/08 04:05:56;;;;;;;4.63;4.22;;;;;;;2.19;57.73;94529.94;4925268;29;20114;-76
2022/02/08 04:08:22;;;;;;;4.50;4.13;;;;;;;2.23;57.30;94537.06;4949576;28;20117;-77
2022/02/08 04:10:48;;;;;;;7.97;4.05;;;;;;;2.23;57.04;94531.94;4940501;29;20507;-76
2022/02/08 04:34:27;;;;;;;5.93;3.67;;;;;;;2.27;56.15;94571.63;4941337;29;20039;-77
2022/02/08 04:44:28;;;;;;;8.07;3.85;;;;;;;2.35;55.26;94597.16;4941435;29;20038;-77
2022/02/08 04:47:18;;;;;;;4.68;4.07;;;;;;;2.33;55.38;94594.00;4933723;29;20077;-77
2022/02/08 04:49:44;;;;;;;4.03;3.63;;;;;;;2.31;55.00;94593.38;4917593;29;21018;-77
2022/02/08 04:52:12;;;;;;;5.38;4.32;;;;;;;2.26;55.37;94611.09;4941426;29;20043;-78
2022/02/08 04:57:21;;;;;;;4.93;4.13;;;;;;;2.36;54.78;94603.09;4925192;29;20106;-77
2022/02/08 05:27:46;;;;;;;4.35;3.78;;;;;;;2.03;54.47;94623.34;4942226;29;20111;-77
2022/02/08 05:43:23;;;;;;;5.45;4.53;;;;;;;2.01;55.05;94661.19;4940296;29;20099;-76
2022/02/08 05:48:39;;;;;;;4.53;4.13;;;;;;;2.07;54.20;94671.50;4936730;29;20056;-77
2022/02/08 05:51:15;;;;;;;7.45;4.97;;;;;;;2.07;54.49;94679.19;4938587;29;20505;-77
2022/02/08 05:56:05;;;;;;;16.02;5.60;;;;;;;2.10;54.30;94703.69;4942363;29;20036;-77
2022/02/08 05:58:31;;;;;;;9.10;6.50;;;;;;;2.18;53.77;94707.91;4926208;29;20310;-77
2022/02/08 06:00:57;;;;;;;11.80;8.05;;;;;;;2.10;54.24;94712.16;4949702;28;20336;-77
2022/02/08 06:03:22;;;;;;;13.52;8.13;;;;;;;2.15;54.68;94727.03;4943435;29;20570;-77
2022/02/08 06:05:49;;;;;;;14.20;7.53;;;;;;;2.25;54.10;94729.28;4943506;29;20043;-77
2022/02/08 06:08:15;;;;;;;12.82;7.88;;;;;;;2.34;53.65;94744.41;4912382;29;20396;-76
2022/02/08 06:10:48;;;;;;;14.85;6.90;;;;;;;2.38;53.00;94755.88;4933457;29;20042;-77
2022/02/08 06:13:14;;;;;;;15.00;7.13;;;;;;;2.51;53.16;94755.22;4928652;29;20043;-77
2022/02/08 06:15:42;;;;;;;14.55;8.57;;;;;;;2.59;53.08;94761.97;4934081;29;20044;-77
2022/02/08 06:18:07;;;;;;;9.23;7.10;;;;;;;2.61;52.89;94770.31;4944175;28;20030;-77
2022/02/08 06:20:33;;;;;;;8.77;6.97;;;;;;;2.61;53.18;94771.13;4943166;29;20035;-77
2022/02/08 06:22:58;;;;;;;13.50;8.35;;;;;;;2.71;52.41;94768.22;4926213;29;20031;-77
2022/02/08 06:25:23;;;;;;;13.20;7.00;;;;;;;2.71;52.21;94771.59;4926181;29;20082;-77
2022/02/08 06:27:51;;;;;;;15.48;8.57;;;;;;;2.74;52.28;94782.47;4950203;28;20147;-77
2022/02/08 06:30:18;;;;;;;12.93;8.20;;;;;;;2.77;52.03;94779.56;4942976;28;20032;-77
2022/02/08 06:32:44;;;;;;;15.05;9.55;;;;;;;2.91;52.12;94779.44;4926115;29;20039;-78
2022/02/08 06:35:17;;;;;;;12.25;9.43;;;;;;;2.95;52.25;94785.84;4941839;29;20039;-77
2022/02/08 06:37:43;;;;;;;10.93;7.18;;;;;;;2.97;51.20;94790.78;4920216;29;20043;-78
2022/02/08 06:40:10;;;;;;;18.25;9.95;;;;;;;2.97;51.66;94796.72;4950884;28;20113;-77
2022/02/08 06:42:35;;;;;;;17.63;10.73;;;;;;;2.99;51.99;94806.81;4933774;29;20047;-77
2022/02/08 06:45:02;;;;;;;13.65;8.85;;;;;;;3.07;51.48;94816.94;4943175;28;20086;-77
2022/02/08 06:47:28;;;;;;;21.83;11.40;;;;;;;3.13;51.38;94825.69;4949491;28;20094;-77
2022/02/08 06:49:53;;;;;;;18.05;9.35;;;;;;;3.00;51.77;94827.16;4942726;29;20523;-77
2022/02/08 06:52:19;;;;;;;20.52;12.60;;;;;;;3.03;51.57;94831.13;4941383;29;20079;-77
2022/02/08 06:54:44;;;;;;;23.65;12.75;;;;;;;3.06;51.77;94832.53;4942661;29;20046;-78
2022/02/08 06:57:10;;;;;;;19.55;11.07;;;;;;;2.99;52.00;94842.75;4925967;29;20045;-77
2022/02/08 06:59:38;;;;;;;14.73;9.48;;;;;;;2.92;52.17;94855.53;4925709;29;20043;-77
2022/02/08 07:02:04;;;;;;;19.15;9.48;;;;;;;2.91;52.33;94860.84;4942953;28;20035;-78
2022/02/08 07:04:30;;;;;;;14.27;9.05;;;;;;;2.86;52.73;94860.59;4941181;28;20151;-77
2022/02/08 07:06:56;;;;;;;10.38;6.65;;;;;;;2.83;52.08;94874.63;4941754;29;20572;-77
2022/02/08 07:09:21;;;;;;;12.07;8.48;;;;;;;2.85;52.64;94879.56;4942680;29;20038;-77
2022/02/08 07:11:48;;;;;;;15.13;9.25;;;;;;;2.88;51.95;94877.41;4942639;29;20042;-77
2022/02/08 07:14:14;;;;;;;18.42;11.25;;;;;;;2.91;52.52;94887.31;4949833;28;20127;-77
2022/02/08 07:16:39;;;;;;;21.10;11.88;;;;;;;2.85;52.46;94890.63;4938784;29;20032;-77
2022/02/08 07:19:05;;;;;;;14.90;9.52;;;;;;;2.90;52.09;94888.31;4943346;28;20404;-77
2022/02/08 07:21:31;;;;;;;17.67;10.65;;;;;;;2.92;52.66;94901.75;4943601;29;20039;-77
2022/02/08 07:23:56;;;;;;;13.50;8.65;;;;;;;2.90;52.26;94888.31;4943599;29;20032;-77
2022/02/08 07:26:23;;;;;;;14.32;8.07;;;;;;;2.83;52.31;94915.69;4926530;29;20035;-77
2022/02/08 07:28:50;;;;;;;15.88;9.55;;;;;;;2.80;52.88;94905.00;4941937;29;20094;-76
2022/02/08 07:31:24;;;;;;;10.55;7.78;;;;;;;2.81;52.74;94901.44;4926443;29;20122;-77
2022/02/08 07:33:58;;;;;;;16.13;9.30;;;;;;;2.78;52.76;94909.53;4941468;29;20035;-77
2022/02/08 07:36:33;;;;;;;25.73;12.35;;;;;;;2.84;53.61;94914.72;4920703;29;20043;-77
2022/02/08 07:38:59;;;;;;;18.30;11.52;;;;;;;2.91;52.82;94913.00;4949544;29;20051;-77
2022/02/08 07:41:42;;;;;;;16.40;7.85;;;;;;;2.91;52.35;94910.44;4926352;29;20549;-77
2022/02/08 07:44:10;;;;;;;12.05;6.75;;;;;;;2.79;52.67;94914.47;4941832;29;20039;-77
2022/02/08 07:46:36;;;;;;;14.38;7.97;;;;;;;2.71;52.93;94906.88;4941478;29;20040;-77
2022/02/08 07:49:03;;;;;;;11.40;7.45;;;;;;;2.67;53.88;94909.00;4925759;29;20450;-77
2022/02/08 07:51:34;;;;;;;15.10;8.02;;;;;;;2.64;52.84;94914.50;4925141;29;20024;-76
2022/02/08 07:54:03;;;;;;;22.13;8.70;;;;;;;2.64;53.81;94914.50;4941759;29;20041;-76
2022/02/08 07:56:29;;;;;;;14.48;7.88;;;;;;;2.66;52.91;94922.03;4940745;29;20034;-77
2022/02/08 07:58:54;;;;;;;11.25;7.00;;;;;;;2.68;52.92;94927.78;4933452;29;20039;-76
2022/02/08 08:01:20;;;;;;;13.23;6.53;;;;;;;2.69;52.74;94925.03;4933695;29;20043;-77
2022/02/08 08:03:45;;;;;;;12.88;7.47;;;;;;;2.82;53.05;94931.28;4940976;28;20059;-77
2022/02/08 08:06:12;;;;;;;15.48;9.15;;;;;;;2.88;52.92;94945.97;4941675;29;20096;-77
2022/02/08 08:08:38;;;;;;;13.52;8.05;;;;;;;2.94;53.24;94950.41;4918249;29;20102;-76
2022/02/08 08:11:08;;;;;;;10.43;8.40;;;;;;;3.00;52.85;94953.03;4942742;28;20499;-76
2022/02/08 08:13:39;;;;;;;14.43;7.68;;;;;;;3.12;52.91;94957.69;4942775;28;20039;-76
2022/02/08 08:16:15;;;;;;;20.20;9.77;;;;;;;3.23;52.87;94959.78;4940826;28;20118;-76
2022/02/08 08:21:29;;;;;;;18.90;9.73;;;;;;;3.37;52.20;94971.78;4936987;29;20043;-77
2022/02/08 08:23:54;;;;;;;22.13;12.73;;;;;;;3.49;51.82;94977.22;4943754;29;20095;-77
2022/02/08 08:26:20;;;;;;;13.00;7.95;;;;;;;3.47;51.08;94981.75;4926383;29;20031;-76
2022/02/08 08:28:46;;;;;;;15.40;8.75;;;;;;;3.45;51.55;94986.31;4942517;29;20066;-76
2022/02/08 08:31:11;;;;;;;17.95;8.80;;;;;;;3.50;50.74;94991.69;4932947;29;20975;-76
2022/02/08 08:33:36;;;;;;;23.02;14.85;;;;;;;3.54;51.18;94991.13;4942661;28;20032;-77
2022/02/08 08:36:03;;;;;;;12.52;8.27;;;;;;;3.55;50.70;95005.56;4917095;29;20032;-77
2022/02/08 08:38:31;;;;;;;14.70;9.32;;;;;;;3.60;51.04;95005.84;4940817;28;20027;-76
2022/02/08 08:41:05;;;;;;;14.80;9.52;;;;;;;3.70;51.01;95005.50;4939443;29;20055;-77
2022/02/08 08:51:48;;;;;;;23.70;11.75;;;;;;;4.21;49.67;95011.25;4927833;29;20054;-77
2022/02/08 08:54:13;;;;;;;13.60;8.45;;;;;;;4.28;48.62;95010.53;4911734;29;20058;-77
2022/02/08 08:56:40;;;;;;;14.52;7.70;;;;;;;4.39;48.05;95007.41;4941553;29;20062;-77
2022/02/08 08:59:07;;;;;;;12.15;7.47;;;;;;;4.42;48.60;95005.28;4925125;29;20163;-77
2022/02/08 09:01:32;;;;;;;20.33;6.70;;;;;;;4.53;47.80;95009.88;4940709;29;20074;-77
2022/02/08 09:03:58;;;;;;;11.23;6.22;;;;;;;4.55;48.70;94996.81;4923987;29;20036;-77
2022/02/08 09:06:23;;;;;;;17.40;11.18;;;;;;;4.66;48.00;94996.28;4941933;29;20140;-78
2022/02/08 09:08:49;;;;;;;13.07;8.02;;;;;;;4.80;47.62;94995.38;4917768;29;20038;-76
2022/02/08 09:13:50;;;;;;;8.55;5.78;;;;;;;4.75;47.51;95018.34;4941366;29;20039;-76
2022/02/08 09:32:18;;;;;;;14.20;8.88;;;;;;;4.69;47.69;95034.53;4939721;29;20070;-77
2022/02/08 09:34:44;;;;;;;13.63;7.70;;;;;;;4.77;47.03;95036.97;4941577;29;20050;-77
2022/02/08 09:37:17;;;;;;;9.68;4.57;;;;;;;4.59;46.85;95035.88;4923033;29;20115;-76
2022/02/08 09:39:46;;;;;;;5.00;3.95;;;;;;;4.60;46.14;95035.69;4940551;29;20023;-75
2022/02/08 09:42:13;;;;;;;4.15;3.80;;;;;;;4.61;45.73;95039.06;4929955;29;20035;-76
2022/02/08 09:44:38;;;;;;;7.63;4.15;;;;;;;4.60;45.31;95030.53;4941282;29;20038;-77
2022/02/08 09:47:12;;;;;;;6.68;4.00;;;;;;;4.55;44.16;95032.06;4941784;28;20035;-76
2022/02/08 09:49:42;;;;;;;6.32;3.70;;;;;;;4.46;43.94;95034.00;4939860;29;20032;-76
2022/02/08 09:52:08;;;;;;;4.30;3.53;;;;;;;4.32;43.00;95032.31;4917516;29;20476;-77
2022/02/08 09:54:34;;;;;;;10.27;3.15;;;;;;;4.23;42.88;95034.25;4940340;29;20051;-76
2022/02/08 09:56:59;;;;;;;3.58;3.03;;;;;;;4.34;42.13;95009.75;4940367;29;20511;-76
2022/02/08 09:59:25;;;;;;;4.53;2.72;;;;;;;4.33;42.59;95021.03;4917999;29;20047;-76
2022/02/08 10:01:54;;;;;;;4.10;2.60;;;;;;;4.37;42.92;95022.25;4940029;29;20035;-76
2022/02/08 10:04:20;;;;;;;13.48;3.35;;;;;;;4.31;42.92;95043.63;4938422;29;20119;-76
2022/02/08 10:06:45;;;;;;;3.33;2.90;;;;;;;4.26;42.16;95035.66;4940976;29;20039;-76
2022/02/08 10:09:10;;;;;;;6.57;3.00;;;;;;;4.17;42.91;95040.94;4923982;29;20436;-76
2022/02/08 10:11:53;;;;;;;4.45;3.08;;;;;;;4.09;42.07;95032.56;4940026;29;20036;-76
2022/02/08 10:22:44;;;;;;;4.22;3.50;;;;;;;3.57;44.65;95028.50;4940352;29;20050;-76
2022/02/08 10:25:20;;;;;;;5.40;3.60;;;;;;;3.58;44.02;95038.66;4939676;29;20178;-75
2022/02/08 10:28:15;;;;;;;3.55;2.70;;;;;;;3.61;44.29;95030.56;4938797;29;20050;-76
2022/02/08 10:30:59;;;;;;;8.63;3.03;;;;;;;3.75;44.26;95017.84;4925811;29;20409;-75
2022/02/08 10:38:59;;;;;;;5.55;3.13;;;;;;;3.98;44.70;95041.56;4934699;28;20130;-75
2022/02/08 10:41:25;;;;;;;3.28;2.75;;;;;;;4.10;44.92;95055.53;4927076;29;20495;-76
2022/02/08 10:44:05;;;;;;;7.55;2.72;;;;;;;4.23;44.63;95036.84;4942991;29;20472;-75
2022/02/08 10:46:31;;;;;;;6.55;2.85;;;;;;;4.15;45.26;95050.63;4925957;29;20039;-76
2022/02/08 10:49:03;;;;;;;4.57;3.15;;;;;;;4.19;45.87;95051.84;4911055;29;20032;-75
2022/02/08 10:51:32;;;;;;;11.15;3.40;;;;;;;4.05;46.89;95057.84;4942322;29;20571;-76
2022/02/08 10:54:04;;;;;;;4.30;3.22;;;;;;;4.13;46.59;95060.31;4926951;29;20547;-76
2022/02/08 10:56:32;;;;;;;8.75;3.78;;;;;;;4.32;46.25;95063.22;4943601;29;20162;-76
2022/02/08 10:59:16;;;;;;;3.50;3.20;;;;;;;4.45;45.05;95047.88;4942294;29;20097;-75
2022/02/08 11:01:58;;;;;;;12.48;4.18;;;;;;;4.36;44.72;95059.28;4943649;29;20035;-75
2022/02/08 11:04:44;;;;;;;4.43;4.03;;;;;;;4.42;44.93;95063.69;4941699;29;20035;-76
2022/02/08 11:07:45;;;;;;;8.55;5.78;;;;;;;4.56;47.16;95080.84;4942960;29;20040;-76
2022/02/08 11:10:30;;;;;;;7.18;4.53;;;;;;;4.57;47.77;95072.13;4929496;29;20055;-76
2022/02/08 11:13:01;;;;;;;12.45;7.20;;;;;;;4.72;47.15;95074.59;4928374;29;20040;-76
2022/02/08 11:15:41;;;;;;;22.90;11.90;;;;;;;4.81;47.30;95079.41;4944381;28;20042;-76
2022/02/08 11:20:48;;;;;;;5.05;3.22;;;;;;;4.74;47.87;95083.72;4942518;29;20058;-76
2022/02/08 11:23:48;;;;;;;6.75;3.60;;;;;;;4.65;48.45;95086.63;4926913;29;20062;-76
2022/02/08 11:26:42;;;;;;;9.68;4.63;;;;;;;4.67;48.46;95076.94;4933709;28;20043;-76
2022/02/08 11:29:41;;;;;;;7.65;4.43;;;;;;;4.57;48.42;95087.59;4927582;29;20042;-76
2022/02/08 11:32:59;;;;;;;4.43;3.50;;;;;;;4.43;48.94;95078.97;4942943;29;20038;-76
2022/02/08 11:44:25;;;;;;;7.15;3.90;;;;;;;4.27;48.99;95091.31;4941656;29;20038;-76
2022/02/08 12:00:11;;;;;;;4.60;2.97;;;;;;;4.40;47.69;95070.81;4941691;29;20057;-76
2022/02/08 12:02:49;;;;;;;3.08;2.78;;;;;;;4.46;46.66;95075.22;4949392;28;20039;-75
2022/02/08 12:07:52;;;;;;;10.07;3.40;;;;;;;4.52;45.97;95069.31;4942704;29;20087;-76
2022/02/08 12:56:36;;;;;;;7.93;2.90;;;;;;;5.53;43.02;95079.91;4900579;29;20047;-79
2022/02/08 14:01:57;;;;;;;7.07;3.67;;;;;;;5.65;40.24;95148.81;4906674;29;20048;-75
2022/02/08 14:09:52;;;;;;;4.28;2.83;;;;;;;5.46;38.89;95166.81;4915158;29;20055;-77
2022/02/08 15:08:51;;;;;;;14.85;5.72;;;;;;;4.78;45.52;95260.13;4890329;29;20107;-77
2022/02/08 15:11:16;;;;;;;17.08;5.45;;;;;;;4.66;45.70;95246.13;4903645;29;20127;-77
2022/02/08 15:13:48;;;;;;;16.60;7.13;;;;;;;4.60;46.28;95252.03;4903705;29;20115;-77
2022/02/08 15:18:40;;;;;;;10.50;4.65;;;;;;;4.36;46.30;95267.81;4904499;29;20029;-75
2022/02/08 15:21:09;;;;;;;22.88;6.85;;;;;;;4.29;46.39;95274.69;4905568;29;20036;-75
2022/02/08 15:23:35;;;;;;;8.73;5.05;;;;;;;4.31;45.90;95275.28;4889009;29;20044;-75
2022/02/08 15:26:00;;;;;;;31.15;6.88;;;;;;;4.24;45.73;95277.81;4872276;29;20110;-74
2022/02/08 15:28:27;;;;;;;14.05;5.65;;;;;;;4.22;46.36;95290.84;4904614;29;20059;-75
2022/02/08 15:30:53;;;;;;;7.13;4.00;;;;;;;4.14;45.94;95285.81;4887497;29;20143;-75
2022/02/08 15:33:19;;;;;;;7.78;4.38;;;;;;;4.13;45.33;95291.94;4903146;29;20060;-75
2022/02/08 15:35:45;;;;;;;8.00;4.57;;;;;;;4.19;45.63;95298.91;4887850;29;20046;-75
2022/02/08 15:38:10;;;;;;;13.75;5.05;;;;;;;4.27;45.27;95299.81;4903522;29;20044;-75
2022/02/08 15:40:35;;;;;;;15.02;4.90;;;;;;;4.38;44.08;95309.63;4895323;29;20036;-74
2022/02/08 15:43:01;;;;;;;14.60;4.50;;;;;;;4.42;43.21;95321.19;4903338;29;20039;-75
2022/02/08 15:45:47;;;;;;;14.93;5.38;;;;;;;4.45;42.95;95310.50;4903619;29;20500;-75
2022/02/08 15:48:20;;;;;;;13.25;4.82;;;;;;;4.39;43.66;95317.19;4903442;29;20968;-75
2022/02/08 16:01:11;;;;;;;26.77;4.72;;;;;;;4.16;44.10;95337.88;4904572;29;20040;-75
2022/02/08 16:09:11;;;;;;;8.27;4.55;;;;;;;3.93;45.15;95342.34;4902682;29;20039;-75
2022/02/08 16:14:22;;;;;;;13.25;4.60;;;;;;;3.84;45.84;95358.84;4902848;29;20039;-75
2022/02/08 16:19:36;;;;;;;10.07;5.20;;;;;;;3.78;45.38;95382.69;4903188;29;20406;-73
2022/02/08 16:24:43;;;;;;;10.07;4.53;;;;;;;3.77;44.54;95389.63;4902461;29;20519;-74
2022/02/08 16:27:55;;;;;;;11.60;5.28;;;;;;;3.72;44.54;95396.25;4902636;29;20539;-75
2022/02/08 16:33:05;;;;;;;10.07;3.70;;;;;;;3.67;43.93;95403.69;4902049;29;20106;-75
2022/02/08 16:55:02;;;;;;;6.30;3.25;;;;;;;3.38;43.04;95428.34;4903641;29;20075;-75
2022/02/08 16:59:53;;;;;;;8.50;3.22;;;;;;;3.31;43.88;95440.28;4903834;29;20481;-75
2022/02/08 17:02:21;;;;;;;10.60;3.65;;;;;;;3.33;43.66;95442.69;4902242;29;20044;-74
2022/02/08 17:04:47;;;;;;;6.18;2.85;;;;;;;3.28;43.95;95456.06;4871346;29;20082;-75
2022/02/08 17:07:12;;;;;;;10.70;4.18;;;;;;;3.33;43.96;95448.63;4886260;29;20040;-75
2022/02/08 17:09:46;;;;;;;8.55;3.55;;;;;;;3.32;44.15;95447.03;4901540;29;20028;-75
2022/02/08 17:12:19;;;;;;;8.63;3.30;;;;;;;3.30;44.21;95454.13;4894067;29;20048;-75
2022/02/08 17:49:55;;;;;;;10.93;4.30;;;;;;;2.97;45.20;95531.38;4905067;29;20090;-76
2022/02/08 17:52:20;;;;;;;12.48;5.00;;;;;;;2.93;45.86;95535.25;4905630;29;20040;-76
2022/02/08 17:54:46;;;;;;;19.15;6.32;;;;;;;2.92;46.14;95533.63;4905313;29;20049;-76
2022/02/08 17:57:11;;;;;;;10.50;4.32;;;;;;;2.95;46.58;95535.88;4906630;29;20048;-76
2022/02/08 17:59:37;;;;;;;11.85;4.18;;;;;;;2.97;46.62;95546.00;4891844;29;20097;-75
2022/02/08 18:02:02;;;;;;;11.40;4.65;;;;;;;3.00;46.41;95543.88;4905442;29;20365;-76
2022/02/08 18:04:28;;;;;;;9.88;3.97;;;;;;;3.07;46.54;95545.78;4905500;29;20408;-74
2022/02/08 18:06:53;;;;;;;18.27;4.70;;;;;;;3.10;46.24;95555.75;4905157;29;20029;-75
2022/02/08 18:09:20;;;;;;;12.43;4.40;;;;;;;3.07;46.76;95550.91;4908076;29;20043;-76
2022/02/08 18:11:56;;;;;;;13.13;6.20;;;;;;;3.14;46.39;95557.00;4908263;29;20068;-76
2022/02/08 18:14:22;;;;;;;15.70;6.78;;;;;;;3.18;46.94;95558.25;4904713;29;20059;-75
2022/02/08 18:17:02;;;;;;;14.45;6.47;;;;;;;3.20;46.74;95558.88;4906303;29;20464;-76
2022/02/08 18:19:32;;;;;;;30.02;10.02;;;;;;;3.24;46.77;95562.72;4908351;29;20040;-75
2022/02/08 18:22:20;;;;;;;45.70;19.88;;;;;;;3.24;46.69;95573.78;4905851;29;20032;-74
2022/02/08 19:12:57;;;;;;;34.95;17.00;;;;;;;3.46;46.62;95592.84;4907120;29;20107;-77
2022/02/08 19:20:40;;;;;;;33.03;15.57;;;;;;;3.58;46.30;95606.91;4907066;29;20052;-77
2022/02/08 19:23:05;;;;;;;30.58;13.75;;;;;;;3.57;46.45;95610.44;4891928;29;20036;-77
2022/02/08 19:25:31;;;;;;;34.47;13.98;;;;;;;3.55;46.89;95606.44;4908574;29;20039;-77
2022/02/08 19:27:57;;;;;;;44.20;17.27;;;;;;;3.52;46.85;95620.44;4903628;29;20032;-75
2022/02/08 19:30:23;;;;;;;38.70;12.15;;;;;;;3.48;46.92;95620.94;4904809;29;20111;-76
2022/02/08 19:32:48;;;;;;;31.33;10.38;;;;;;;3.45;47.21;95619.50;4906120;29;20048;-76
2022/02/08 19:35:14;;;;;;;6.78;4.47;;;;;;;3.45;47.48;95619.50;4906467;29;20041;-76
2022/02/08 19:37:39;;;;;;;11.60;5.40;;;;;;;3.37;47.30;95616.97;4904003;29;20032;-75
2022/02/08 19:40:06;;;;;;;22.70;10.50;;;;;;;3.31;47.67;95630.50;4903684;29;20029;-76
2022/02/08 19:42:33;;;;;;;40.15;18.27;;;;;;;3.32;47.77;95632.09;4903242;29;20092;-76
2022/02/08 19:45:08;;;;;;;34.42;14.60;;;;;;;3.29;47.65;95628.09;4896046;29;20100;-75
2022/02/08 19:47:34;;;;;;;28.25;15.57;;;;;;;3.28;47.38;95631.63;4905158;29;20465;-75
2022/02/08 19:49:59;;;;;;;37.17;17.02;;;;;;;3.28;47.82;95635.97;4904822;29;20040;-76
2022/02/08 19:52:25;;;;;;;33.92;16.23;;;;;;;3.26;47.99;95628.44;4905629;29;20048;-76